KLAA/LAA METAR and TAF weather

Enter ICAO airport designator
Station Type Date Time Source
KLAA METAR 2019/11/15 04:53 UTC NOAA

KLAA 150453Z AUTO 11004KT 10SM CLR 01/M03 A3025 RMK AO2 SLP246 T00061033


Station Type Date Time Source
KLAA Decoded METAR 2019/11/15 04:53 UTC NOAA

LAMAR MUNICIPAL AIRPORT, CO, United States (KLAA) 38-04N 102-41W 1119M
Nov 14, 2019 - 11:53 PM EST / 2019.11.15 0453 UTC
Wind: from the ESE (110 degrees) at 5 MPH (4 KT):0
Visibility: 10 mile(s):0
Sky conditions: clear
Temperature: 33.1 F (0.6 C)
Windchill: 28 F (-2 C):1
Dew Point: 26.1 F (-3.3 C)
Relative Humidity: 75%
Pressure (altimeter): 30.25 in. Hg (1024 hPa)
ob: KLAA 150453Z AUTO 11004KT 10SM CLR 01/M03 A3025 RMK AO2 SLP246 T00061033
cycle: 5

Station Type Date Time Source
KLAA TAF UTC NOAA

Error!

Example: see airport list